sensor_id;sensor_type;location;lat;lon;timestamp;temperature;humidity
39493;DHT22;25176;51.060;3.720;2023-12-04T00:01:31;4.30;99.90
39493;DHT22;25176;51.060;3.720;2023-12-04T00:03:57;4.20;99.90
39493;DHT22;25176;51.060;3.720;2023-12-04T00:06:22;4.20;99.90
39493;DHT22;25176;51.060;3.720;2023-12-04T00:08:48;4.20;99.90
39493;DHT22;25176;51.060;3.720;2023-12-04T00:11:13;4.20;99.90
39493;DHT22;25176;51.060;3.720;2023-12-04T00:13:39;4.20;99.90
39493;DHT22;25176;51.060;3.720;2023-12-04T00:16:04;4.20;99.90
39493;DHT22;25176;51.060;3.720;2023-12-04T00:18:31;4.20;99.90
39493;DHT22;25176;51.060;3.720;2023-12-04T00:20:56;4.30;99.90
39493;DHT22;25176;51.060;3.720;2023-12-04T00:23:22;4.30;99.90
39493;DHT22;25176;51.060;3.720;2023-12-04T00:25:47;4.30;99.90
39493;DHT22;25176;51.060;3.720;2023-12-04T00:28:13;4.20;99.90
39493;DHT22;25176;51.060;3.720;2023-12-04T00:30:39;4.10;99.90
39493;DHT22;25176;51.060;3.720;2023-12-04T00:33:04;4.10;99.90
39493;DHT22;25176;51.060;3.720;2023-12-04T00:35:30;4.10;99.90
39493;DHT22;25176;51.060;3.720;2023-12-04T00:37:55;4.10;99.90
39493;DHT22;25176;51.060;3.720;2023-12-04T00:40:21;4.00;99.90
39493;DHT22;25176;51.060;3.720;2023-12-04T00:42:46;4.10;99.90
39493;DHT22;25176;51.060;3.720;2023-12-04T00:45:12;4.00;99.90
39493;DHT22;25176;51.060;3.720;2023-12-04T00:47:37;4.00;99.90
39493;DHT22;25176;51.060;3.720;2023-12-04T00:50:02;4.10;99.90
39493;DHT22;25176;51.060;3.720;2023-12-04T00:52:28;4.10;99.90
39493;DHT22;25176;51.060;3.720;2023-12-04T00:54:54;4.10;99.90
39493;DHT22;25176;51.060;3.720;2023-12-04T00:57:19;4.00;99.90
39493;DHT22;25176;51.060;3.720;2023-12-04T00:59:45;4.10;99.90
39493;DHT22;25176;51.060;3.720;2023-12-04T01:02:10;4.00;99.90
39493;DHT22;25176;51.060;3.720;2023-12-04T01:04:36;3.90;99.90
39493;DHT22;25176;51.060;3.720;2023-12-04T01:07:05;4.00;99.90
39493;DHT22;25176;51.060;3.720;2023-12-04T01:09:30;4.10;99.90
39493;DHT22;25176;51.060;3.720;2023-12-04T01:11:55;4.10;99.90
39493;DHT22;25176;51.060;3.720;2023-12-04T01:14:21;4.10;99.90
39493;DHT22;25176;51.060;3.720;2023-12-04T01:16:47;4.10;99.90
39493;DHT22;25176;51.060;3.720;2023-12-04T01:19:12;4.10;99.90
39493;DHT22;25176;51.060;3.720;2023-12-04T01:21:38;4.10;99.80
39493;DHT22;25176;51.060;3.720;2023-12-04T01:24:03;4.10;99.90
39493;DHT22;25176;51.060;3.720;2023-12-04T01:26:29;4.10;99.80
39493;DHT22;25176;51.060;3.720;2023-12-04T01:28:55;4.20;99.80
39493;DHT22;25176;51.060;3.720;2023-12-04T01:31:20;4.10;99.50
39493;DHT22;25176;51.060;3.720;2023-12-04T01:33:45;4.00;99.70
39493;DHT22;25176;51.060;3.720;2023-12-04T01:36:11;4.00;99.90
39493;DHT22;25176;51.060;3.720;2023-12-04T01:38:37;4.00;99.80
39493;DHT22;25176;51.060;3.720;2023-12-04T01:41:03;4.00;99.70
39493;DHT22;25176;51.060;3.720;2023-12-04T01:43:28;4.10;99.60
39493;DHT22;25176;51.060;3.720;2023-12-04T01:45:54;4.10;99.60
39493;DHT22;25176;51.060;3.720;2023-12-04T01:48:20;4.10;99.50
39493;DHT22;25176;51.060;3.720;2023-12-04T01:50:45;4.10;99.50
39493;DHT22;25176;51.060;3.720;2023-12-04T01:53:11;4.10;99.40
39493;DHT22;25176;51.060;3.720;2023-12-04T01:55:37;4.10;99.20
39493;DHT22;25176;51.060;3.720;2023-12-04T01:58:03;4.10;99.50
39493;DHT22;25176;51.060;3.720;2023-12-04T02:00:33;4.10;99.50
39493;DHT22;25176;51.060;3.720;2023-12-04T02:02:58;4.20;99.50
39493;DHT22;25176;51.060;3.720;2023-12-04T02:05:24;4.20;99.30
39493;DHT22;25176;51.060;3.720;2023-12-04T02:07:51;4.20;99.10
39493;DHT22;25176;51.060;3.720;2023-12-04T02:10:16;4.20;99.40
39493;DHT22;25176;51.060;3.720;2023-12-04T02:12:42;4.20;99.50
39493;DHT22;25176;51.060;3.720;2023-12-04T02:15:07;4.20;99.40
39493;DHT22;25176;51.060;3.720;2023-12-04T02:17:34;4.20;99.20
39493;DHT22;25176;51.060;3.720;2023-12-04T02:19:59;4.20;99.30
39493;DHT22;25176;51.060;3.720;2023-12-04T02:22:25;4.30;99.30
39493;DHT22;25176;51.060;3.720;2023-12-04T02:24:50;4.40;99.20
39493;DHT22;25176;51.060;3.720;2023-12-04T02:27:23;4.30;99.20
39493;DHT22;25176;51.060;3.720;2023-12-04T02:29:51;4.30;99.20
39493;DHT22;25176;51.060;3.720;2023-12-04T02:32:18;4.30;99.20
39493;DHT22;25176;51.060;3.720;2023-12-04T02:34:44;4.20;99.10
39493;DHT22;25176;51.060;3.720;2023-12-04T02:37:11;4.30;99.20
39493;DHT22;25176;51.060;3.720;2023-12-04T02:39:38;4.30;98.90
39493;DHT22;25176;51.060;3.720;2023-12-04T02:42:04;4.20;99.00
39493;DHT22;25176;51.060;3.720;2023-12-04T02:44:29;4.30;98.90
39493;DHT22;25176;51.060;3.720;2023-12-04T02:46:55;4.30;98.90
39493;DHT22;25176;51.060;3.720;2023-12-04T02:49:21;4.30;98.80
39493;DHT22;25176;51.060;3.720;2023-12-04T02:51:46;4.30;98.70
39493;DHT22;25176;51.060;3.720;2023-12-04T02:54:12;4.40;98.70
39493;DHT22;25176;51.060;3.720;2023-12-04T02:56:37;4.40;98.50
39493;DHT22;25176;51.060;3.720;2023-12-04T02:59:03;4.30;98.40
39493;DHT22;25176;51.060;3.720;2023-12-04T03:01:28;4.30;98.50
39493;DHT22;25176;51.060;3.720;2023-12-04T03:03:54;4.30;98.30
39493;DHT22;25176;51.060;3.720;2023-12-04T03:06:19;4.20;98.20
39493;DHT22;25176;51.060;3.720;2023-12-04T03:08:45;4.20;98.50
39493;DHT22;25176;51.060;3.720;2023-12-04T03:11:10;4.20;98.30
39493;DHT22;25176;51.060;3.720;2023-12-04T03:13:35;4.30;98.30
39493;DHT22;25176;51.060;3.720;2023-12-04T03:16:01;4.30;98.20
39493;DHT22;25176;51.060;3.720;2023-12-04T03:18:27;4.30;98.20
39493;DHT22;25176;51.060;3.720;2023-12-04T03:20:54;4.20;98.20
39493;DHT22;25176;51.060;3.720;2023-12-04T03:23:19;4.30;98.40
39493;DHT22;25176;51.060;3.720;2023-12-04T03:25:45;4.30;98.30
39493;DHT22;25176;51.060;3.720;2023-12-04T03:28:11;4.30;98.20
39493;DHT22;25176;51.060;3.720;2023-12-04T03:30:38;4.10;97.90
39493;DHT22;25176;51.060;3.720;2023-12-04T03:33:03;4.20;98.20
39493;DHT22;25176;51.060;3.720;2023-12-04T03:35:29;4.20;98.20
39493;DHT22;25176;51.060;3.720;2023-12-04T03:37:54;4.20;98.00
39493;DHT22;25176;51.060;3.720;2023-12-04T03:40:20;4.20;97.90
39493;DHT22;25176;51.060;3.720;2023-12-04T03:42:45;4.20;97.90
39493;DHT22;25176;51.060;3.720;2023-12-04T03:45:11;4.20;97.80
39493;DHT22;25176;51.060;3.720;2023-12-04T03:47:36;4.20;98.00
39493;DHT22;25176;51.060;3.720;2023-12-04T03:50:02;4.10;97.90
39493;DHT22;25176;51.060;3.720;2023-12-04T03:52:27;4.10;98.00
39493;DHT22;25176;51.060;3.720;2023-12-04T03:54:53;4.20;97.80
39493;DHT22;25176;51.060;3.720;2023-12-04T03:57:18;4.20;97.80
39493;DHT22;25176;51.060;3.720;2023-12-04T03:59:44;4.30;97.50
39493;DHT22;25176;51.060;3.720;2023-12-04T04:02:10;4.30;97.60
39493;DHT22;25176;51.060;3.720;2023-12-04T04:04:35;4.30;97.50
39493;DHT22;25176;51.060;3.720;2023-12-04T04:07:01;4.40;97.40
39493;DHT22;25176;51.060;3.720;2023-12-04T04:09:26;4.40;97.30
39493;DHT22;25176;51.060;3.720;2023-12-04T04:11:52;4.40;97.40
39493;DHT22;25176;51.060;3.720;2023-12-04T04:14:17;4.50;97.20
39493;DHT22;25176;51.060;3.720;2023-12-04T04:16:43;4.50;97.10
39493;DHT22;25176;51.060;3.720;2023-12-04T04:19:08;4.50;97.00
39493;DHT22;25176;51.060;3.720;2023-12-04T04:21:34;4.40;97.10
39493;DHT22;25176;51.060;3.720;2023-12-04T04:23:59;4.40;96.90
39493;DHT22;25176;51.060;3.720;2023-12-04T04:26:25;4.50;96.90
39493;DHT22;25176;51.060;3.720;2023-12-04T04:28:50;4.50;97.00
39493;DHT22;25176;51.060;3.720;2023-12-04T04:31:16;4.50;97.10
39493;DHT22;25176;51.060;3.720;2023-12-04T04:33:41;4.50;96.80
39493;DHT22;25176;51.060;3.720;2023-12-04T04:36:08;4.50;96.60
39493;DHT22;25176;51.060;3.720;2023-12-04T04:38:34;4.70;96.80
39493;DHT22;25176;51.060;3.720;2023-12-04T04:41:00;4.60;96.80
39493;DHT22;25176;51.060;3.720;2023-12-04T04:43:25;4.70;96.50
39493;DHT22;25176;51.060;3.720;2023-12-04T04:45:50;4.70;96.20
39493;DHT22;25176;51.060;3.720;2023-12-04T04:48:16;4.60;96.30
39493;DHT22;25176;51.060;3.720;2023-12-04T04:50:41;4.60;96.20
39493;DHT22;25176;51.060;3.720;2023-12-04T04:53:07;4.50;96.30
39493;DHT22;25176;51.060;3.720;2023-12-04T04:55:32;4.60;96.20
39493;DHT22;25176;51.060;3.720;2023-12-04T04:57:58;4.60;96.20
39493;DHT22;25176;51.060;3.720;2023-12-04T05:00:23;4.60;96.00
39493;DHT22;25176;51.060;3.720;2023-12-04T05:02:50;4.60;95.80
39493;DHT22;25176;51.060;3.720;2023-12-04T05:05:16;4.60;95.80
39493;DHT22;25176;51.060;3.720;2023-12-04T05:07:41;4.50;95.90
39493;DHT22;25176;51.060;3.720;2023-12-04T05:10:07;4.50;95.70
39493;DHT22;25176;51.060;3.720;2023-12-04T05:12:32;4.60;95.70
39493;DHT22;25176;51.060;3.720;2023-12-04T05:14:58;4.60;95.70
39493;DHT22;25176;51.060;3.720;2023-12-04T05:17:23;4.60;95.70
39493;DHT22;25176;51.060;3.720;2023-12-04T05:19:49;4.60;95.80
39493;DHT22;25176;51.060;3.720;2023-12-04T05:22:14;4.60;95.70
39493;DHT22;25176;51.060;3.720;2023-12-04T05:24:40;4.70;95.80
39493;DHT22;25176;51.060;3.720;2023-12-04T05:27:06;4.70;95.70
39493;DHT22;25176;51.060;3.720;2023-12-04T05:29:31;4.70;95.50
39493;DHT22;25176;51.060;3.720;2023-12-04T05:31:57;4.70;95.40
39493;DHT22;25176;51.060;3.720;2023-12-04T05:34:23;4.70;95.60
39493;DHT22;25176;51.060;3.720;2023-12-04T05:36:49;4.70;95.40
39493;DHT22;25176;51.060;3.720;2023-12-04T05:39:14;4.70;95.60
39493;DHT22;25176;51.060;3.720;2023-12-04T05:41:40;4.80;95.40
39493;DHT22;25176;51.060;3.720;2023-12-04T05:44:05;4.90;95.10
39493;DHT22;25176;51.060;3.720;2023-12-04T05:46:31;4.80;95.00
39493;DHT22;25176;51.060;3.720;2023-12-04T05:48:57;4.80;95.30
39493;DHT22;25176;51.060;3.720;2023-12-04T05:51:23;4.70;95.00
39493;DHT22;25176;51.060;3.720;2023-12-04T05:53:48;4.70;95.00
39493;DHT22;25176;51.060;3.720;2023-12-04T05:56:14;4.80;95.10
39493;DHT22;25176;51.060;3.720;2023-12-04T05:58:39;4.80;95.00
39493;DHT22;25176;51.060;3.720;2023-12-04T06:01:05;4.70;94.90
39493;DHT22;25176;51.060;3.720;2023-12-04T06:03:32;4.70;94.90
39493;DHT22;25176;51.060;3.720;2023-12-04T06:05:57;4.70;95.10
39493;DHT22;25176;51.060;3.720;2023-12-04T06:08:23;4.70;94.80
39493;DHT22;25176;51.060;3.720;2023-12-04T06:10:48;4.70;94.70
39493;DHT22;25176;51.060;3.720;2023-12-04T06:13:14;4.70;94.70
39493;DHT22;25176;51.060;3.720;2023-12-04T06:15:39;4.70;94.70
39493;DHT22;25176;51.060;3.720;2023-12-04T06:18:04;4.70;94.60
39493;DHT22;25176;51.060;3.720;2023-12-04T06:20:30;4.70;94.70
39493;DHT22;25176;51.060;3.720;2023-12-04T06:22:56;4.80;94.70
39493;DHT22;25176;51.060;3.720;2023-12-04T06:25:21;4.80;94.50
39493;DHT22;25176;51.060;3.720;2023-12-04T06:27:48;4.70;94.30
39493;DHT22;25176;51.060;3.720;2023-12-04T06:30:13;4.70;94.70
39493;DHT22;25176;51.060;3.720;2023-12-04T06:32:39;4.70;94.60
39493;DHT22;25176;51.060;3.720;2023-12-04T06:35:05;4.60;94.70
39493;DHT22;25176;51.060;3.720;2023-12-04T06:37:31;4.70;94.60
39493;DHT22;25176;51.060;3.720;2023-12-04T06:39:57;4.70;94.60
39493;DHT22;25176;51.060;3.720;2023-12-04T06:42:24;4.70;94.80
39493;DHT22;25176;51.060;3.720;2023-12-04T06:44:50;4.70;94.70
39493;DHT22;25176;51.060;3.720;2023-12-04T06:47:17;4.70;94.70
39493;DHT22;25176;51.060;3.720;2023-12-04T06:49:43;4.80;94.90
39493;DHT22;25176;51.060;3.720;2023-12-04T06:52:09;4.80;94.70
39493;DHT22;25176;51.060;3.720;2023-12-04T06:54:35;4.80;94.60
39493;DHT22;25176;51.060;3.720;2023-12-04T06:57:00;4.90;94.70
39493;DHT22;25176;51.060;3.720;2023-12-04T06:59:26;4.90;94.40
39493;DHT22;25176;51.060;3.720;2023-12-04T07:01:53;4.80;94.50
39493;DHT22;25176;51.060;3.720;2023-12-04T07:04:19;4.70;94.40
39493;DHT22;25176;51.060;3.720;2023-12-04T07:06:47;4.80;94.80
39493;DHT22;25176;51.060;3.720;2023-12-04T07:09:13;4.80;94.80
39493;DHT22;25176;51.060;3.720;2023-12-04T07:11:39;5.00;94.90
39493;DHT22;25176;51.060;3.720;2023-12-04T07:14:05;4.90;94.60
39493;DHT22;25176;51.060;3.720;2023-12-04T07:16:38;4.90;94.80
39493;DHT22;25176;51.060;3.720;2023-12-04T07:19:03;4.80;94.80
39493;DHT22;25176;51.060;3.720;2023-12-04T07:21:29;4.90;95.00
39493;DHT22;25176;51.060;3.720;2023-12-04T07:23:55;5.00;95.20
39493;DHT22;25176;51.060;3.720;2023-12-04T07:26:20;4.90;94.90
39493;DHT22;25176;51.060;3.720;2023-12-04T07:28:46;4.90;95.10
39493;DHT22;25176;51.060;3.720;2023-12-04T07:31:11;4.80;95.20
39493;DHT22;25176;51.060;3.720;2023-12-04T07:33:37;4.80;95.40
39493;DHT22;25176;51.060;3.720;2023-12-04T07:36:03;4.80;95.60
39493;DHT22;25176;51.060;3.720;2023-12-04T07:38:28;4.90;95.70
39493;DHT22;25176;51.060;3.720;2023-12-04T07:40:54;4.90;95.80
39493;DHT22;25176;51.060;3.720;2023-12-04T07:43:19;4.90;95.60
39493;DHT22;25176;51.060;3.720;2023-12-04T07:45:45;4.90;95.70
39493;DHT22;25176;51.060;3.720;2023-12-04T07:48:11;5.00;95.90
39493;DHT22;25176;51.060;3.720;2023-12-04T07:50:36;5.00;95.80
39493;DHT22;25176;51.060;3.720;2023-12-04T07:53:03;5.00;96.10
39493;DHT22;25176;51.060;3.720;2023-12-04T07:55:29;5.00;96.40
39493;DHT22;25176;51.060;3.720;2023-12-04T07:57:55;4.80;96.80
39493;DHT22;25176;51.060;3.720;2023-12-04T08:00:21;4.80;97.10
39493;DHT22;25176;51.060;3.720;2023-12-04T08:02:51;4.70;97.60
39493;DHT22;25176;51.060;3.720;2023-12-04T08:05:17;4.50;98.00
39493;DHT22;25176;51.060;3.720;2023-12-04T08:07:43;4.60;98.70
39493;DHT22;25176;51.060;3.720;2023-12-04T08:10:08;4.50;98.60
39493;DHT22;25176;51.060;3.720;2023-12-04T08:12:34;4.50;98.90
39493;DHT22;25176;51.060;3.720;2023-12-04T08:15:00;4.50;99.10
39493;DHT22;25176;51.060;3.720;2023-12-04T08:17:27;4.50;98.90
39493;DHT22;25176;51.060;3.720;2023-12-04T08:19:52;4.50;99.00
39493;DHT22;25176;51.060;3.720;2023-12-04T08:22:18;4.40;99.00
39493;DHT22;25176;51.060;3.720;2023-12-04T08:24:44;4.40;99.00
39493;DHT22;25176;51.060;3.720;2023-12-04T08:27:10;4.40;99.20
39493;DHT22;25176;51.060;3.720;2023-12-04T08:29:36;4.40;99.50
39493;DHT22;25176;51.060;3.720;2023-12-04T08:32:01;4.50;99.40
39493;DHT22;25176;51.060;3.720;2023-12-04T08:34:27;4.50;99.10
39493;DHT22;25176;51.060;3.720;2023-12-04T08:36:52;4.50;99.30
39493;DHT22;25176;51.060;3.720;2023-12-04T08:39:18;4.60;99.50
39493;DHT22;25176;51.060;3.720;2023-12-04T08:41:46;4.60;99.50
39493;DHT22;25176;51.060;3.720;2023-12-04T08:44:13;4.70;99.40
39493;DHT22;25176;51.060;3.720;2023-12-04T08:46:38;4.80;99.40
39493;DHT22;25176;51.060;3.720;2023-12-04T08:49:05;4.90;99.10
39493;DHT22;25176;51.060;3.720;2023-12-04T08:51:30;5.00;99.30
39493;DHT22;25176;51.060;3.720;2023-12-04T08:53:56;4.90;99.10
39493;DHT22;25176;51.060;3.720;2023-12-04T08:56:22;5.00;99.50
39493;DHT22;25176;51.060;3.720;2023-12-04T08:58:48;4.80;99.50
39493;DHT22;25176;51.060;3.720;2023-12-04T09:01:15;4.80;99.50
39493;DHT22;25176;51.060;3.720;2023-12-04T09:03:41;4.90;99.90
39493;DHT22;25176;51.060;3.720;2023-12-04T09:06:07;4.80;99.90
39493;DHT22;25176;51.060;3.720;2023-12-04T09:08:34;4.70;99.90
39493;DHT22;25176;51.060;3.720;2023-12-04T09:11:00;4.70;99.90
39493;DHT22;25176;51.060;3.720;2023-12-04T09:13:26;4.80;99.90
39493;DHT22;25176;51.060;3.720;2023-12-04T09:15:53;4.80;99.90
39493;DHT22;25176;51.060;3.720;2023-12-04T09:18:19;4.80;99.90
39493;DHT22;25176;51.060;3.720;2023-12-04T09:20:45;4.80;99.90
39493;DHT22;25176;51.060;3.720;2023-12-04T09:23:11;4.70;99.90
39493;DHT22;25176;51.060;3.720;2023-12-04T09:25:37;4.80;99.90
39493;DHT22;25176;51.060;3.720;2023-12-04T09:28:03;4.80;99.90
39493;DHT22;25176;51.060;3.720;2023-12-04T09:30:28;4.80;99.90
39493;DHT22;25176;51.060;3.720;2023-12-04T09:32:54;4.70;99.90
39493;DHT22;25176;51.060;3.720;2023-12-04T09:35:19;4.70;99.90
39493;DHT22;25176;51.060;3.720;2023-12-04T09:37:45;4.70;99.90
39493;DHT22;25176;51.060;3.720;2023-12-04T09:40:11;4.80;99.90
39493;DHT22;25176;51.060;3.720;2023-12-04T09:42:37;4.80;99.90
39493;DHT22;25176;51.060;3.720;2023-12-04T09:45:04;4.90;99.90
39493;DHT22;25176;51.060;3.720;2023-12-04T09:47:30;4.70;99.90
39493;DHT22;25176;51.060;3.720;2023-12-04T09:49:57;4.70;99.90
39493;DHT22;25176;51.060;3.720;2023-12-04T09:55:26;4.90;99.90
39493;DHT22;25176;51.060;3.720;2023-12-04T09:57:51;4.90;99.90
39493;DHT22;25176;51.060;3.720;2023-12-04T10:00:17;4.90;99.90
39493;DHT22;25176;51.060;3.720;2023-12-04T10:02:44;4.90;99.90
39493;DHT22;25176;51.060;3.720;2023-12-04T10:05:10;4.90;99.90
39493;DHT22;25176;51.060;3.720;2023-12-04T10:07:35;4.90;99.90
39493;DHT22;25176;51.060;3.720;2023-12-04T10:10:04;4.90;99.90
39493;DHT22;25176;51.060;3.720;2023-12-04T10:12:33;4.60;99.90
39493;DHT22;25176;51.060;3.720;2023-12-04T10:15:04;4.50;99.90
39493;DHT22;25176;51.060;3.720;2023-12-04T10:17:33;4.70;99.90
39493;DHT22;25176;51.060;3.720;2023-12-04T10:20:32;4.40;99.90
39493;DHT22;25176;51.060;3.720;2023-12-04T10:22:57;4.40;99.90
39493;DHT22;25176;51.060;3.720;2023-12-04T10:25:24;4.40;99.90
39493;DHT22;25176;51.060;3.720;2023-12-04T10:27:54;4.10;99.90
39493;DHT22;25176;51.060;3.720;2023-12-04T10:30:27;4.20;99.90
39493;DHT22;25176;51.060;3.720;2023-12-04T10:32:56;4.10;99.90
39493;DHT22;25176;51.060;3.720;2023-12-04T10:35:29;4.10;99.90
39493;DHT22;25176;51.060;3.720;2023-12-04T10:37:58;4.20;99.90
39493;DHT22;25176;51.060;3.720;2023-12-04T10:40:25;4.30;99.90
39493;DHT22;25176;51.060;3.720;2023-12-04T10:42:51;4.30;99.90
39493;DHT22;25176;51.060;3.720;2023-12-04T10:45:17;4.20;99.90
39493;DHT22;25176;51.060;3.720;2023-12-04T10:47:42;4.10;99.90
39493;DHT22;25176;51.060;3.720;2023-12-04T10:50:09;4.10;99.90
39493;DHT22;25176;51.060;3.720;2023-12-04T10:52:35;4.20;99.90
39493;DHT22;25176;51.060;3.720;2023-12-04T10:55:01;4.30;99.90
39493;DHT22;25176;51.060;3.720;2023-12-04T10:57:31;4.20;99.90
39493;DHT22;25176;51.060;3.720;2023-12-04T11:00:03;4.20;99.90
39493;DHT22;25176;51.060;3.720;2023-12-04T11:02:33;4.20;99.90
39493;DHT22;25176;51.060;3.720;2023-12-04T11:05:00;4.20;99.90
39493;DHT22;25176;51.060;3.720;2023-12-04T11:07:28;4.10;99.90
39493;DHT22;25176;51.060;3.720;2023-12-04T11:09:55;4.30;99.90
39493;DHT22;25176;51.060;3.720;2023-12-04T11:12:23;4.20;99.90
39493;DHT22;25176;51.060;3.720;2023-12-04T11:14:52;4.20;99.90
39493;DHT22;25176;51.060;3.720;2023-12-04T11:17:19;4.30;99.90
39493;DHT22;25176;51.060;3.720;2023-12-04T11:22:32;4.30;99.90
39493;DHT22;25176;51.060;3.720;2023-12-04T11:25:01;4.20;99.90
39493;DHT22;25176;51.060;3.720;2023-12-04T11:27:30;4.20;99.90
39493;DHT22;25176;51.060;3.720;2023-12-04T11:29:55;4.20;99.90
39493;DHT22;25176;51.060;3.720;2023-12-04T11:32:21;4.30;99.90
39493;DHT22;25176;51.060;3.720;2023-12-04T11:34:50;4.30;99.90
39493;DHT22;25176;51.060;3.720;2023-12-04T11:37:15;4.20;99.90
39493;DHT22;25176;51.060;3.720;2023-12-04T11:39:41;4.20;99.90
39493;DHT22;25176;51.060;3.720;2023-12-04T11:42:07;4.20;99.90
39493;DHT22;25176;51.060;3.720;2023-12-04T11:44:36;4.00;99.90
39493;DHT22;25176;51.060;3.720;2023-12-04T11:47:05;4.20;99.90
39493;DHT22;25176;51.060;3.720;2023-12-04T11:49:31;4.20;99.90
39493;DHT22;25176;51.060;3.720;2023-12-04T11:51:58;4.20;99.90
39493;DHT22;25176;51.060;3.720;2023-12-04T11:54:24;4.30;99.90
39493;DHT22;25176;51.060;3.720;2023-12-04T11:59:39;4.50;99.90
39493;DHT22;25176;51.060;3.720;2023-12-04T12:02:08;4.50;99.90
39493;DHT22;25176;51.060;3.720;2023-12-04T12:04:35;4.50;99.90
39493;DHT22;25176;51.060;3.720;2023-12-04T12:07:00;4.50;99.90
39493;DHT22;25176;51.060;3.720;2023-12-04T12:09:28;4.50;99.90
39493;DHT22;25176;51.060;3.720;2023-12-04T12:11:54;4.50;99.90
39493;DHT22;25176;51.060;3.720;2023-12-04T12:14:20;4.50;99.90
39493;DHT22;25176;51.060;3.720;2023-12-04T12:16:46;4.60;99.90
39493;DHT22;25176;51.060;3.720;2023-12-04T12:19:11;4.60;99.90
39493;DHT22;25176;51.060;3.720;2023-12-04T12:21:37;4.60;99.90
39493;DHT22;25176;51.060;3.720;2023-12-04T12:24:05;4.80;99.90
39493;DHT22;25176;51.060;3.720;2023-12-04T12:26:31;4.70;99.90
39493;DHT22;25176;51.060;3.720;2023-12-04T12:28:57;4.80;99.90
39493;DHT22;25176;51.060;3.720;2023-12-04T12:31:22;4.60;99.90
39493;DHT22;25176;51.060;3.720;2023-12-04T12:33:48;4.60;99.90
39493;DHT22;25176;51.060;3.720;2023-12-04T12:36:13;4.60;99.90
39493;DHT22;25176;51.060;3.720;2023-12-04T12:38:41;4.70;99.90
39493;DHT22;25176;51.060;3.720;2023-12-04T12:41:07;4.60;99.90
39493;DHT22;25176;51.060;3.720;2023-12-04T12:43:33;4.50;99.90
39493;DHT22;25176;51.060;3.720;2023-12-04T12:45:59;4.50;99.90
39493;DHT22;25176;51.060;3.720;2023-12-04T12:48:26;4.50;99.90
39493;DHT22;25176;51.060;3.720;2023-12-04T12:50:52;4.60;99.90
39493;DHT22;25176;51.060;3.720;2023-12-04T12:53:20;4.60;99.90
39493;DHT22;25176;51.060;3.720;2023-12-04T12:55:45;4.70;99.90
39493;DHT22;25176;51.060;3.720;2023-12-04T12:58:12;4.80;99.90
39493;DHT22;25176;51.060;3.720;2023-12-04T13:00:39;4.80;99.90
39493;DHT22;25176;51.060;3.720;2023-12-04T13:03:13;4.80;99.90
39493;DHT22;25176;51.060;3.720;2023-12-04T13:05:38;4.70;99.90
39493;DHT22;25176;51.060;3.720;2023-12-04T13:08:04;4.80;99.90
39493;DHT22;25176;51.060;3.720;2023-12-04T13:10:30;4.80;99.90
39493;DHT22;25176;51.060;3.720;2023-12-04T13:12:55;4.70;99.90
39493;DHT22;25176;51.060;3.720;2023-12-04T13:15:22;4.70;99.90
39493;DHT22;25176;51.060;3.720;2023-12-04T13:17:48;4.70;99.90
39493;DHT22;25176;51.060;3.720;2023-12-04T13:20:14;4.80;99.90
39493;DHT22;25176;51.060;3.720;2023-12-04T13:22:41;4.90;99.90
39493;DHT22;25176;51.060;3.720;2023-12-04T13:25:06;5.00;99.90
39493;DHT22;25176;51.060;3.720;2023-12-04T13:27:33;5.00;99.90
39493;DHT22;25176;51.060;3.720;2023-12-04T13:29:58;4.90;99.90
39493;DHT22;25176;51.060;3.720;2023-12-04T13:32:24;4.80;99.90
39493;DHT22;25176;51.060;3.720;2023-12-04T13:34:50;5.00;99.90
39493;DHT22;25176;51.060;3.720;2023-12-04T13:37:15;5.00;99.90
39493;DHT22;25176;51.060;3.720;2023-12-04T13:42:41;4.90;99.90
39493;DHT22;25176;51.060;3.720;2023-12-04T13:45:30;4.90;99.90
39493;DHT22;25176;51.060;3.720;2023-12-04T13:47:56;5.00;99.90
39493;DHT22;25176;51.060;3.720;2023-12-04T13:50:22;4.90;99.90
39493;DHT22;25176;51.060;3.720;2023-12-04T13:52:47;4.90;99.90
39493;DHT22;25176;51.060;3.720;2023-12-04T13:55:20;5.00;99.90
39493;DHT22;25176;51.060;3.720;2023-12-04T13:57:56;4.80;99.90
39493;DHT22;25176;51.060;3.720;2023-12-04T14:00:24;4.80;99.90
39493;DHT22;25176;51.060;3.720;2023-12-04T14:02:50;5.00;99.90
39493;DHT22;25176;51.060;3.720;2023-12-04T14:05:21;5.00;99.90
39493;DHT22;25176;51.060;3.720;2023-12-04T14:07:47;5.00;99.90
39493;DHT22;25176;51.060;3.720;2023-12-04T14:10:13;5.00;99.90
39493;DHT22;25176;51.060;3.720;2023-12-04T14:12:40;5.00;99.90
39493;DHT22;25176;51.060;3.720;2023-12-04T14:15:06;5.00;99.90
39493;DHT22;25176;51.060;3.720;2023-12-04T14:17:31;5.10;99.90
39493;DHT22;25176;51.060;3.720;2023-12-04T14:19:57;5.00;99.90
39493;DHT22;25176;51.060;3.720;2023-12-04T14:22:22;4.90;99.90
39493;DHT22;25176;51.060;3.720;2023-12-04T14:24:48;4.90;99.90
39493;DHT22;25176;51.060;3.720;2023-12-04T14:27:13;4.90;99.90
39493;DHT22;25176;51.060;3.720;2023-12-04T14:29:39;4.80;99.90
39493;DHT22;25176;51.060;3.720;2023-12-04T14:32:05;4.80;99.90
39493;DHT22;25176;51.060;3.720;2023-12-04T14:34:31;4.80;99.90
39493;DHT22;25176;51.060;3.720;2023-12-04T14:36:58;4.80;99.90
39493;DHT22;25176;51.060;3.720;2023-12-04T14:39:24;4.80;99.90
39493;DHT22;25176;51.060;3.720;2023-12-04T14:41:50;4.80;99.90
39493;DHT22;25176;51.060;3.720;2023-12-04T14:44:16;4.80;99.90
39493;DHT22;25176;51.060;3.720;2023-12-04T14:46:42;4.80;99.90
39493;DHT22;25176;51.060;3.720;2023-12-04T14:49:08;4.80;99.90
39493;DHT22;25176;51.060;3.720;2023-12-04T14:51:33;4.80;99.90
39493;DHT22;25176;51.060;3.720;2023-12-04T14:53:59;4.80;99.90
39493;DHT22;25176;51.060;3.720;2023-12-04T14:56:46;4.70;99.90
39493;DHT22;25176;51.060;3.720;2023-12-04T14:59:12;4.80;99.90
39493;DHT22;25176;51.060;3.720;2023-12-04T15:02:06;4.70;99.90
39493;DHT22;25176;51.060;3.720;2023-12-04T15:04:51;4.60;99.90
39493;DHT22;25176;51.060;3.720;2023-12-04T15:07:17;4.70;99.90
39493;DHT22;25176;51.060;3.720;2023-12-04T15:09:45;4.70;99.90
39493;DHT22;25176;51.060;3.720;2023-12-04T15:13:01;4.70;99.90
39493;DHT22;25176;51.060;3.720;2023-12-04T15:15:26;4.70;99.90
39493;DHT22;25176;51.060;3.720;2023-12-04T15:18:24;4.70;99.90
39493;DHT22;25176;51.060;3.720;2023-12-04T15:20:55;4.60;99.90
39493;DHT22;25176;51.060;3.720;2023-12-04T15:23:21;4.60;99.90
39493;DHT22;25176;51.060;3.720;2023-12-04T15:25:50;4.60;99.90
39493;DHT22;25176;51.060;3.720;2023-12-04T15:28:16;4.70;99.90
39493;DHT22;25176;51.060;3.720;2023-12-04T15:30:41;4.80;99.90
39493;DHT22;25176;51.060;3.720;2023-12-04T15:33:07;4.80;99.90
39493;DHT22;25176;51.060;3.720;2023-12-04T15:35:33;4.70;99.90
39493;DHT22;25176;51.060;3.720;2023-12-04T15:37:58;4.70;99.90
39493;DHT22;25176;51.060;3.720;2023-12-04T15:40:24;4.70;99.90
39493;DHT22;25176;51.060;3.720;2023-12-04T15:42:49;4.70;99.90
39493;DHT22;25176;51.060;3.720;2023-12-04T15:45:15;4.70;99.90
39493;DHT22;25176;51.060;3.720;2023-12-04T15:47:41;4.60;99.90
39493;DHT22;25176;51.060;3.720;2023-12-04T15:50:07;4.50;99.90
39493;DHT22;25176;51.060;3.720;2023-12-04T15:52:35;4.50;99.90